Brunswick, GA (31524)

8:07 AM EDT on July 25, 2014 (GMT -0400)
McKinnon (KSSI) Elev 20 ft | 31.15 °N, 81.39 °W | Change Station

Current weather conditions updated 14 minutes ago

Clear
Clear
79 °F
Feels Like 79 °F
N
7
Wind Variable Wind from WSW

Today is forecast to be nearly the same temperature as yesterday. Slight chance of a thunderstorm.

Today
High -- | Low -- °F
--% Chance of Precip.
Yesterday
High -- | Low -- °F
Precip. -- in
6:38 AM 8:26 PM
Waning Crescent, 2% visible
Pressure 30.05 in
Visibility 10.0 miles
Clouds Clear
Dew Point 74 °F
Humidity 84%
Rainfall 0.00 in
Snow Depth Not available.
UV 1 out of 12
Pollen 4.90 out of 12
Air Quality Not available.
Flu Activity Not available.
METAR KSSI 251153Z AUTO 25006KT 10SM CLR 26/23 A3005 RMK AO2 SLP174 T02610233 10267 20250 51015

More Conditions Fewer Conditions

Pressure 30.05 in
Visibility 10.0 miles
Clouds Clear
Dew Point 74 °F
Humidity 84%
Rainfall 0.00 in
Snow Depth Not available.
UV 1 out of 12
Pollen 4.90 out of 12
Air Quality Not available.
Flu Activity Not available.
METAR KSSI 251153Z AUTO 25006KT 10SM CLR 26/23 A3005 RMK AO2 SLP174 T02610233 10267 20250 51015

More Conditions Fewer Conditions

10-Day Weather Forecast

Almanac

Astronomy

Jul. 25, 2014 Rise Set
Actual Time 6:38 AM EDT 8:26 PM EDT
Civil Twilight 6:11 AM EDT 8:52 PM EDT
Nautical Twilight 5:39 AM EDT 9:24 PM EDT
Astronomical Twilight 5:05 AM EDT 9:58 PM EDT
Moon 5:34 AM EDT 7:25 PM EDT
Length of Visible Light 14h 41m
Length of Day
13h 47m
Tomorrow will be 1m 15s shorter.
Waning Crescent, 2% of the Moon is Illuminated
Today
Waning Crescent
Jul 26
New
Aug 3
First Quarter
Aug 10
Full
Aug 17
Last Quarter

Today's Extremes

State Highs State Lows

Community

WunderPhotos

Upload Photos

1,737,299 photos uploaded!

Nearby

Snow Depth

Station Depth Elevation
No new snow has been reported.

Earthquake Activity

City Distance Mag. Time & Date
No recent earthquake activity has been reported nearby.
Minimum magnitude displayed is 2.5.

Coastal Water Temperatures

Place Temperature
Fernandina Beach, FL 84.9 °F
Mayport (Bar Pilots Dock), FL 86.0 °F

Nearby Weather Stations

Station Location Temp. Heat Index Dew Point Humidity Wind Precip. Elev Updated Type
Avalon Place, Brunswick, GA 77.4 °F 79 °F 76 °F 94% West  at  0.0 mph 0.00 in / hr 43 ft 8:07 AM EDT Rapid Fire
Country Walk, Brunswick, GA 79.5 °F 84 °F 76 °F 89% SSE  at  0.0 mph 0.00 in / hr 30 ft 8:07 AM EDT Rapid Fire
RAWS STERLING GA, Brunswick, GA 74 °F 71 °F 72 °F 94% West  at  2 mph 0.00 in / hr 13 ft 7:04 AM EDT MADIS

Show More Stations Show Fewer Stations